sensor_id;sensor_type;location;lat;lon;timestamp;P1;durP1;ratioP1;P2;durP2;ratioP2
35128;SDS011;21301;43.626;10.580;2022-11-25T00:00:48;31.38;;;14.80;;
35128;SDS011;21301;43.626;10.580;2022-11-25T00:03:13;30.70;;;16.17;;
35128;SDS011;21301;43.626;10.580;2022-11-25T00:05:40;28.13;;;15.35;;
35128;SDS011;21301;43.626;10.580;2022-11-25T00:08:05;26.98;;;15.95;;
35128;SDS011;21301;43.626;10.580;2022-11-25T00:10:31;27.13;;;15.68;;
35128;SDS011;21301;43.626;10.580;2022-11-25T00:12:57;23.80;;;15.20;;
35128;SDS011;21301;43.626;10.580;2022-11-25T00:15:23;26.60;;;16.98;;
35128;SDS011;21301;43.626;10.580;2022-11-25T00:17:49;26.65;;;16.50;;
35128;SDS011;21301;43.626;10.580;2022-11-25T00:20:15;25.77;;;13.88;;
35128;SDS011;21301;43.626;10.580;2022-11-25T00:22:43;26.13;;;14.57;;
35128;SDS011;21301;43.626;10.580;2022-11-25T00:25:09;23.75;;;14.07;;
35128;SDS011;21301;43.626;10.580;2022-11-25T00:27:35;24.67;;;15.40;;
35128;SDS011;21301;43.626;10.580;2022-11-25T00:30:00;24.98;;;16.17;;
35128;SDS011;21301;43.626;10.580;2022-11-25T00:32:26;25.25;;;15.50;;
35128;SDS011;21301;43.626;10.580;2022-11-25T00:34:52;24.73;;;15.65;;
35128;SDS011;21301;43.626;10.580;2022-11-25T00:37:18;26.48;;;15.52;;
35128;SDS011;21301;43.626;10.580;2022-11-25T00:39:44;25.08;;;15.73;;
35128;SDS011;21301;43.626;10.580;2022-11-25T00:42:09;23.38;;;15.07;;
35128;SDS011;21301;43.626;10.580;2022-11-25T00:44:54;24.90;;;14.77;;
35128;SDS011;21301;43.626;10.580;2022-11-25T00:47:20;33.80;;;17.45;;
35128;SDS011;21301;43.626;10.580;2022-11-25T00:49:47;41.97;;;22.38;;
35128;SDS011;21301;43.626;10.580;2022-11-25T00:52:16;24.80;;;15.85;;
35128;SDS011;21301;43.626;10.580;2022-11-25T00:54:46;62.78;;;31.08;;
35128;SDS011;21301;43.626;10.580;2022-11-25T00:57:14;33.38;;;19.48;;
35128;SDS011;21301;43.626;10.580;2022-11-25T00:59:41;28.70;;;17.83;;
35128;SDS011;21301;43.626;10.580;2022-11-25T01:02:08;35.47;;;19.13;;
35128;SDS011;21301;43.626;10.580;2022-11-25T01:04:35;32.58;;;18.15;;
35128;SDS011;21301;43.626;10.580;2022-11-25T01:07:01;29.65;;;17.05;;
35128;SDS011;21301;43.626;10.580;2022-11-25T01:09:27;33.95;;;17.83;;
35128;SDS011;21301;43.626;10.580;2022-11-25T01:11:53;27.20;;;17.42;;
35128;SDS011;21301;43.626;10.580;2022-11-25T01:14:19;34.75;;;19.23;;
35128;SDS011;21301;43.626;10.580;2022-11-25T01:16:46;26.80;;;15.77;;
35128;SDS011;21301;43.626;10.580;2022-11-25T01:19:12;22.77;;;13.93;;
35128;SDS011;21301;43.626;10.580;2022-11-25T01:21:38;23.45;;;14.85;;
35128;SDS011;21301;43.626;10.580;2022-11-25T01:24:04;18.92;;;13.18;;
35128;SDS011;21301;43.626;10.580;2022-11-25T01:26:32;22.40;;;15.30;;
35128;SDS011;21301;43.626;10.580;2022-11-25T01:29:03;22.73;;;14.48;;
35128;SDS011;21301;43.626;10.580;2022-11-25T01:31:35;25.98;;;17.40;;
35128;SDS011;21301;43.626;10.580;2022-11-25T01:34:03;23.30;;;14.30;;
35128;SDS011;21301;43.626;10.580;2022-11-25T01:36:35;22.25;;;14.82;;
35128;SDS011;21301;43.626;10.580;2022-11-25T01:39:02;21.20;;;15.35;;
35128;SDS011;21301;43.626;10.580;2022-11-25T01:41:29;20.33;;;13.13;;
35128;SDS011;21301;43.626;10.580;2022-11-25T01:44:03;22.30;;;14.18;;
35128;SDS011;21301;43.626;10.580;2022-11-25T01:49:18;18.50;;;12.95;;
35128;SDS011;21301;43.626;10.580;2022-11-25T01:52:13;20.83;;;13.55;;
35128;SDS011;21301;43.626;10.580;2022-11-25T01:54:47;23.75;;;12.98;;
35128;SDS011;21301;43.626;10.580;2022-11-25T01:57:21;24.25;;;14.05;;
35128;SDS011;21301;43.626;10.580;2022-11-25T01:59:52;23.45;;;12.20;;
35128;SDS011;21301;43.626;10.580;2022-11-25T02:02:21;20.67;;;13.82;;
35128;SDS011;21301;43.626;10.580;2022-11-25T02:04:48;18.05;;;12.40;;
35128;SDS011;21301;43.626;10.580;2022-11-25T02:07:19;19.70;;;12.13;;
35128;SDS011;21301;43.626;10.580;2022-11-25T02:10:09;17.13;;;11.15;;
35128;SDS011;21301;43.626;10.580;2022-11-25T02:12:42;16.50;;;11.57;;
35128;SDS011;21301;43.626;10.580;2022-11-25T02:15:10;15.57;;;10.32;;
35128;SDS011;21301;43.626;10.580;2022-11-25T02:17:37;17.38;;;10.45;;
35128;SDS011;21301;43.626;10.580;2022-11-25T02:25:24;19.05;;;11.85;;
35128;SDS011;21301;43.626;10.580;2022-11-25T02:27:56;16.63;;;9.25;;
35128;SDS011;21301;43.626;10.580;2022-11-25T02:30:27;13.65;;;8.63;;
35128;SDS011;21301;43.626;10.580;2022-11-25T02:32:53;16.88;;;10.43;;
35128;SDS011;21301;43.626;10.580;2022-11-25T02:35:24;19.92;;;11.15;;
35128;SDS011;21301;43.626;10.580;2022-11-25T02:37:52;19.58;;;10.18;;
35128;SDS011;21301;43.626;10.580;2022-11-25T02:40:21;18.05;;;10.15;;
35128;SDS011;21301;43.626;10.580;2022-11-25T02:42:48;13.85;;;9.55;;
35128;SDS011;21301;43.626;10.580;2022-11-25T02:45:16;23.90;;;12.13;;
35128;SDS011;21301;43.626;10.580;2022-11-25T02:47:47;15.38;;;9.40;;
35128;SDS011;21301;43.626;10.580;2022-11-25T02:50:13;15.65;;;10.48;;
35128;SDS011;21301;43.626;10.580;2022-11-25T02:52:39;17.70;;;9.88;;
35128;SDS011;21301;43.626;10.580;2022-11-25T02:55:05;20.00;;;11.50;;
35128;SDS011;21301;43.626;10.580;2022-11-25T02:57:31;15.43;;;8.98;;
35128;SDS011;21301;43.626;10.580;2022-11-25T02:59:57;15.02;;;10.00;;
35128;SDS011;21301;43.626;10.580;2022-11-25T03:02:23;13.68;;;8.88;;
35128;SDS011;21301;43.626;10.580;2022-11-25T03:04:48;16.88;;;9.18;;
35128;SDS011;21301;43.626;10.580;2022-11-25T03:07:14;13.52;;;8.85;;
35128;SDS011;21301;43.626;10.580;2022-11-25T03:09:40;13.07;;;8.35;;
35128;SDS011;21301;43.626;10.580;2022-11-25T03:12:10;15.73;;;9.35;;
35128;SDS011;21301;43.626;10.580;2022-11-25T03:14:45;13.85;;;7.97;;
35128;SDS011;21301;43.626;10.580;2022-11-25T03:17:12;16.77;;;7.40;;
35128;SDS011;21301;43.626;10.580;2022-11-25T03:19:38;10.30;;;5.68;;
35128;SDS011;21301;43.626;10.580;2022-11-25T03:22:04;10.07;;;5.65;;
35128;SDS011;21301;43.626;10.580;2022-11-25T03:24:30;12.38;;;7.43;;
35128;SDS011;21301;43.626;10.580;2022-11-25T03:26:56;12.18;;;6.55;;
35128;SDS011;21301;43.626;10.580;2022-11-25T03:29:22;16.05;;;7.18;;
35128;SDS011;21301;43.626;10.580;2022-11-25T03:31:48;13.48;;;7.97;;
35128;SDS011;21301;43.626;10.580;2022-11-25T03:34:14;13.57;;;6.70;;
35128;SDS011;21301;43.626;10.580;2022-11-25T03:36:40;13.25;;;7.50;;
35128;SDS011;21301;43.626;10.580;2022-11-25T03:39:07;12.18;;;7.00;;
35128;SDS011;21301;43.626;10.580;2022-11-25T03:41:35;14.23;;;7.50;;
35128;SDS011;21301;43.626;10.580;2022-11-25T03:44:06;11.27;;;7.20;;
35128;SDS011;21301;43.626;10.580;2022-11-25T03:46:32;19.23;;;11.48;;
35128;SDS011;21301;43.626;10.580;2022-11-25T03:49:01;18.38;;;11.90;;
35128;SDS011;21301;43.626;10.580;2022-11-25T03:51:27;16.02;;;10.88;;
35128;SDS011;21301;43.626;10.580;2022-11-25T03:53:53;16.23;;;9.25;;
35128;SDS011;21301;43.626;10.580;2022-11-25T03:56:19;16.23;;;9.63;;
35128;SDS011;21301;43.626;10.580;2022-11-25T03:58:45;21.40;;;10.25;;
35128;SDS011;21301;43.626;10.580;2022-11-25T04:01:12;15.98;;;10.02;;
35128;SDS011;21301;43.626;10.580;2022-11-25T04:03:37;18.25;;;10.93;;
35128;SDS011;21301;43.626;10.580;2022-11-25T04:06:03;15.00;;;10.38;;
35128;SDS011;21301;43.626;10.580;2022-11-25T04:08:29;18.58;;;11.13;;
35128;SDS011;21301;43.626;10.580;2022-11-25T04:10:56;15.57;;;10.98;;
35128;SDS011;21301;43.626;10.580;2022-11-25T04:13:25;25.77;;;12.48;;
35128;SDS011;21301;43.626;10.580;2022-11-25T04:15:51;20.65;;;12.05;;
35128;SDS011;21301;43.626;10.580;2022-11-25T04:18:19;15.15;;;10.40;;
35128;SDS011;21301;43.626;10.580;2022-11-25T04:20:48;19.55;;;10.18;;
35128;SDS011;21301;43.626;10.580;2022-11-25T04:23:15;14.13;;;10.30;;
35128;SDS011;21301;43.626;10.580;2022-11-25T04:25:49;18.00;;;11.15;;
35128;SDS011;21301;43.626;10.580;2022-11-25T04:28:22;17.38;;;10.63;;
35128;SDS011;21301;43.626;10.580;2022-11-25T04:30:48;15.82;;;10.30;;
35128;SDS011;21301;43.626;10.580;2022-11-25T04:33:14;19.23;;;11.23;;
35128;SDS011;21301;43.626;10.580;2022-11-25T04:35:41;18.42;;;10.38;;
35128;SDS011;21301;43.626;10.580;2022-11-25T04:38:08;16.90;;;10.57;;
35128;SDS011;21301;43.626;10.580;2022-11-25T04:40:36;16.17;;;10.45;;
35128;SDS011;21301;43.626;10.580;2022-11-25T04:43:21;22.20;;;13.20;;
35128;SDS011;21301;43.626;10.580;2022-11-25T04:45:58;23.70;;;11.50;;
35128;SDS011;21301;43.626;10.580;2022-11-25T04:48:24;15.55;;;10.80;;
35128;SDS011;21301;43.626;10.580;2022-11-25T04:50:50;17.10;;;10.98;;
35128;SDS011;21301;43.626;10.580;2022-11-25T04:53:16;20.23;;;11.65;;
35128;SDS011;21301;43.626;10.580;2022-11-25T04:55:41;17.10;;;10.63;;
35128;SDS011;21301;43.626;10.580;2022-11-25T04:58:13;17.80;;;9.70;;
35128;SDS011;21301;43.626;10.580;2022-11-25T05:00:59;18.67;;;10.70;;
35128;SDS011;21301;43.626;10.580;2022-11-25T05:03:25;16.90;;;10.82;;
35128;SDS011;21301;43.626;10.580;2022-11-25T05:05:51;17.23;;;10.55;;
35128;SDS011;21301;43.626;10.580;2022-11-25T05:08:16;15.25;;;10.98;;
35128;SDS011;21301;43.626;10.580;2022-11-25T05:10:42;15.75;;;10.30;;
35128;SDS011;21301;43.626;10.580;2022-11-25T05:13:08;21.73;;;11.93;;
35128;SDS011;21301;43.626;10.580;2022-11-25T05:15:34;28.38;;;19.80;;
35128;SDS011;21301;43.626;10.580;2022-11-25T05:18:04;19.77;;;11.77;;
35128;SDS011;21301;43.626;10.580;2022-11-25T05:20:44;22.05;;;12.80;;
35128;SDS011;21301;43.626;10.580;2022-11-25T05:23:12;22.67;;;10.40;;
35128;SDS011;21301;43.626;10.580;2022-11-25T05:25:38;18.58;;;11.43;;
35128;SDS011;21301;43.626;10.580;2022-11-25T05:28:24;20.40;;;10.60;;
35128;SDS011;21301;43.626;10.580;2022-11-25T05:30:50;23.40;;;10.45;;
35128;SDS011;21301;43.626;10.580;2022-11-25T05:33:15;20.10;;;10.40;;
35128;SDS011;21301;43.626;10.580;2022-11-25T05:35:42;17.45;;;11.07;;
35128;SDS011;21301;43.626;10.580;2022-11-25T05:38:08;17.38;;;10.82;;
35128;SDS011;21301;43.626;10.580;2022-11-25T05:40:35;19.95;;;11.98;;
35128;SDS011;21301;43.626;10.580;2022-11-25T05:43:06;15.73;;;10.40;;
35128;SDS011;21301;43.626;10.580;2022-11-25T05:45:36;16.30;;;10.38;;
35128;SDS011;21301;43.626;10.580;2022-11-25T05:48:05;16.35;;;10.40;;
35128;SDS011;21301;43.626;10.580;2022-11-25T05:50:31;15.07;;;10.52;;
35128;SDS011;21301;43.626;10.580;2022-11-25T05:53:13;17.25;;;9.40;;
35128;SDS011;21301;43.626;10.580;2022-11-25T05:55:42;15.43;;;9.80;;
35128;SDS011;21301;43.626;10.580;2022-11-25T05:58:17;12.57;;;8.50;;
35128;SDS011;21301;43.626;10.580;2022-11-25T06:00:47;15.68;;;10.00;;
35128;SDS011;21301;43.626;10.580;2022-11-25T06:03:14;15.13;;;10.82;;
35128;SDS011;21301;43.626;10.580;2022-11-25T06:05:40;15.55;;;9.80;;
35128;SDS011;21301;43.626;10.580;2022-11-25T06:08:06;17.40;;;10.88;;
35128;SDS011;21301;43.626;10.580;2022-11-25T06:10:32;13.63;;;9.05;;
35128;SDS011;21301;43.626;10.580;2022-11-25T06:12:58;14.07;;;9.20;;
35128;SDS011;21301;43.626;10.580;2022-11-25T06:15:25;18.15;;;9.48;;
35128;SDS011;21301;43.626;10.580;2022-11-25T06:17:54;14.65;;;8.05;;
35128;SDS011;21301;43.626;10.580;2022-11-25T06:20:23;14.43;;;8.73;;
35128;SDS011;21301;43.626;10.580;2022-11-25T06:22:49;15.93;;;9.68;;
35128;SDS011;21301;43.626;10.580;2022-11-25T06:25:21;13.88;;;9.75;;
35128;SDS011;21301;43.626;10.580;2022-11-25T06:27:48;13.13;;;9.02;;
35128;SDS011;21301;43.626;10.580;2022-11-25T06:30:14;13.23;;;8.27;;
35128;SDS011;21301;43.626;10.580;2022-11-25T06:32:46;15.70;;;9.10;;
35128;SDS011;21301;43.626;10.580;2022-11-25T06:35:20;12.82;;;7.13;;
35128;SDS011;21301;43.626;10.580;2022-11-25T06:37:51;13.68;;;8.57;;
35128;SDS011;21301;43.626;10.580;2022-11-25T06:40:17;13.88;;;8.18;;
35128;SDS011;21301;43.626;10.580;2022-11-25T06:42:43;17.98;;;8.43;;
35128;SDS011;21301;43.626;10.580;2022-11-25T06:45:09;12.75;;;7.75;;
35128;SDS011;21301;43.626;10.580;2022-11-25T06:47:35;15.60;;;8.25;;
35128;SDS011;21301;43.626;10.580;2022-11-25T06:50:00;12.60;;;8.70;;
35128;SDS011;21301;43.626;10.580;2022-11-25T06:52:28;12.07;;;8.68;;
35128;SDS011;21301;43.626;10.580;2022-11-25T06:54:55;11.77;;;8.30;;
35128;SDS011;21301;43.626;10.580;2022-11-25T06:57:21;15.95;;;8.32;;
35128;SDS011;21301;43.626;10.580;2022-11-25T06:59:47;14.48;;;8.40;;
35128;SDS011;21301;43.626;10.580;2022-11-25T07:02:13;20.60;;;9.35;;
35128;SDS011;21301;43.626;10.580;2022-11-25T07:04:39;14.20;;;9.23;;
35128;SDS011;21301;43.626;10.580;2022-11-25T07:07:05;13.45;;;9.15;;
35128;SDS011;21301;43.626;10.580;2022-11-25T07:09:31;12.57;;;7.55;;
35128;SDS011;21301;43.626;10.580;2022-11-25T07:11:57;14.68;;;8.95;;
35128;SDS011;21301;43.626;10.580;2022-11-25T07:14:23;12.98;;;8.98;;
35128;SDS011;21301;43.626;10.580;2022-11-25T07:16:49;12.40;;;7.90;;
35128;SDS011;21301;43.626;10.580;2022-11-25T07:19:15;12.35;;;7.63;;
35128;SDS011;21301;43.626;10.580;2022-11-25T07:21:42;13.20;;;9.35;;
35128;SDS011;21301;43.626;10.580;2022-11-25T07:24:10;15.25;;;8.63;;
35128;SDS011;21301;43.626;10.580;2022-11-25T07:26:38;9.85;;;7.10;;
35128;SDS011;21301;43.626;10.580;2022-11-25T07:29:07;14.80;;;8.45;;
35128;SDS011;21301;43.626;10.580;2022-11-25T07:31:36;14.43;;;7.70;;
35128;SDS011;21301;43.626;10.580;2022-11-25T07:34:21;14.13;;;8.32;;
35128;SDS011;21301;43.626;10.580;2022-11-25T07:39:18;16.27;;;7.78;;
35128;SDS011;21301;43.626;10.580;2022-11-25T07:41:49;12.57;;;7.75;;
35128;SDS011;21301;43.626;10.580;2022-11-25T07:44:16;13.45;;;7.80;;
35128;SDS011;21301;43.626;10.580;2022-11-25T07:46:49;12.93;;;7.70;;
35128;SDS011;21301;43.626;10.580;2022-11-25T07:49:16;13.90;;;7.57;;
35128;SDS011;21301;43.626;10.580;2022-11-25T07:51:48;15.02;;;7.57;;
35128;SDS011;21301;43.626;10.580;2022-11-25T07:54:14;12.38;;;6.93;;
35128;SDS011;21301;43.626;10.580;2022-11-25T07:56:41;10.98;;;7.35;;
35128;SDS011;21301;43.626;10.580;2022-11-25T07:59:10;11.68;;;5.45;;
35128;SDS011;21301;43.626;10.580;2022-11-25T08:01:38;12.85;;;7.10;;
35128;SDS011;21301;43.626;10.580;2022-11-25T08:04:06;16.52;;;8.27;;
35128;SDS011;21301;43.626;10.580;2022-11-25T08:06:35;11.70;;;6.07;;
35128;SDS011;21301;43.626;10.580;2022-11-25T08:09:07;11.52;;;6.30;;
35128;SDS011;21301;43.626;10.580;2022-11-25T08:11:34;9.75;;;5.93;;
35128;SDS011;21301;43.626;10.580;2022-11-25T08:14:00;12.38;;;6.72;;
35128;SDS011;21301;43.626;10.580;2022-11-25T08:16:27;10.70;;;5.72;;
35128;SDS011;21301;43.626;10.580;2022-11-25T08:18:56;9.55;;;7.10;;
35128;SDS011;21301;43.626;10.580;2022-11-25T08:21:25;10.88;;;6.70;;
35128;SDS011;21301;43.626;10.580;2022-11-25T08:23:52;9.18;;;5.72;;
35128;SDS011;21301;43.626;10.580;2022-11-25T08:26:23;12.52;;;7.45;;
35128;SDS011;21301;43.626;10.580;2022-11-25T08:28:55;10.35;;;5.70;;
35128;SDS011;21301;43.626;10.580;2022-11-25T08:31:24;13.43;;;7.10;;
35128;SDS011;21301;43.626;10.580;2022-11-25T08:33:51;11.60;;;6.72;;
35128;SDS011;21301;43.626;10.580;2022-11-25T08:36:18;12.35;;;7.05;;
35128;SDS011;21301;43.626;10.580;2022-11-25T08:38:44;15.20;;;7.28;;
35128;SDS011;21301;43.626;10.580;2022-11-25T08:41:13;11.15;;;7.22;;
35128;SDS011;21301;43.626;10.580;2022-11-25T08:43:41;13.30;;;7.30;;
35128;SDS011;21301;43.626;10.580;2022-11-25T08:46:15;13.02;;;7.45;;
35128;SDS011;21301;43.626;10.580;2022-11-25T08:48:43;10.85;;;6.55;;
35128;SDS011;21301;43.626;10.580;2022-11-25T08:51:10;11.98;;;6.38;;
35128;SDS011;21301;43.626;10.580;2022-11-25T08:53:38;13.27;;;7.38;;
35128;SDS011;21301;43.626;10.580;2022-11-25T08:56:05;16.48;;;7.95;;
35128;SDS011;21301;43.626;10.580;2022-11-25T08:58:32;11.48;;;7.40;;
35128;SDS011;21301;43.626;10.580;2022-11-25T09:00:58;14.18;;;7.90;;
35128;SDS011;21301;43.626;10.580;2022-11-25T09:03:24;14.88;;;8.63;;
35128;SDS011;21301;43.626;10.580;2022-11-25T09:05:50;9.73;;;6.03;;
35128;SDS011;21301;43.626;10.580;2022-11-25T09:08:17;21.77;;;9.63;;
35128;SDS011;21301;43.626;10.580;2022-11-25T09:10:43;12.88;;;7.75;;
35128;SDS011;21301;43.626;10.580;2022-11-25T09:13:09;12.15;;;8.02;;
35128;SDS011;21301;43.626;10.580;2022-11-25T09:15:36;10.57;;;6.40;;
35128;SDS011;21301;43.626;10.580;2022-11-25T09:18:03;15.68;;;7.40;;
35128;SDS011;21301;43.626;10.580;2022-11-25T09:20:31;10.43;;;6.35;;
35128;SDS011;21301;43.626;10.580;2022-11-25T09:22:58;17.77;;;7.18;;
35128;SDS011;21301;43.626;10.580;2022-11-25T09:25:24;11.50;;;7.38;;
35128;SDS011;21301;43.626;10.580;2022-11-25T09:27:51;16.33;;;7.60;;
35128;SDS011;21301;43.626;10.580;2022-11-25T09:30:17;13.13;;;6.90;;
35128;SDS011;21301;43.626;10.580;2022-11-25T09:32:43;12.00;;;8.68;;
35128;SDS011;21301;43.626;10.580;2022-11-25T09:35:13;12.85;;;7.60;;
35128;SDS011;21301;43.626;10.580;2022-11-25T09:37:39;15.57;;;8.60;;
35128;SDS011;21301;43.626;10.580;2022-11-25T09:40:06;12.82;;;8.15;;
35128;SDS011;21301;43.626;10.580;2022-11-25T09:49:08;14.45;;;7.65;;
35128;SDS011;21301;43.626;10.580;2022-11-25T09:51:38;19.08;;;10.27;;
35128;SDS011;21301;43.626;10.580;2022-11-25T09:59:38;15.33;;;9.37;;
35128;SDS011;21301;43.626;10.580;2022-11-25T10:02:32;17.52;;;9.40;;
35128;SDS011;21301;43.626;10.580;2022-11-25T10:05:20;9.90;;;6.13;;
35128;SDS011;21301;43.626;10.580;2022-11-25T10:07:56;11.43;;;6.55;;
35128;SDS011;21301;43.626;10.580;2022-11-25T10:10:33;15.05;;;6.80;;
35128;SDS011;21301;43.626;10.580;2022-11-25T10:13:19;15.13;;;7.10;;
35128;SDS011;21301;43.626;10.580;2022-11-25T10:15:56;16.17;;;6.40;;
35128;SDS011;21301;43.626;10.580;2022-11-25T10:18:28;11.98;;;6.32;;
35128;SDS011;21301;43.626;10.580;2022-11-25T10:21:03;12.10;;;6.10;;
35128;SDS011;21301;43.626;10.580;2022-11-25T10:23:33;14.40;;;7.30;;
35128;SDS011;21301;43.626;10.580;2022-11-25T10:26:02;14.40;;;7.15;;
35128;SDS011;21301;43.626;10.580;2022-11-25T10:28:39;13.80;;;7.95;;
35128;SDS011;21301;43.626;10.580;2022-11-25T10:31:14;12.13;;;6.30;;
35128;SDS011;21301;43.626;10.580;2022-11-25T10:33:52;11.85;;;7.32;;
35128;SDS011;21301;43.626;10.580;2022-11-25T10:39:14;11.68;;;6.90;;
35128;SDS011;21301;43.626;10.580;2022-11-25T10:41:55;14.77;;;8.10;;
35128;SDS011;21301;43.626;10.580;2022-11-25T10:44:32;13.65;;;9.13;;
35128;SDS011;21301;43.626;10.580;2022-11-25T10:52:19;14.90;;;8.07;;
35128;SDS011;21301;43.626;10.580;2022-11-25T10:54:57;16.13;;;8.27;;
35128;SDS011;21301;43.626;10.580;2022-11-25T10:57:40;13.70;;;8.25;;
35128;SDS011;21301;43.626;10.580;2022-11-25T11:00:11;12.07;;;6.32;;
35128;SDS011;21301;43.626;10.580;2022-11-25T11:02:48;10.25;;;6.68;;
35128;SDS011;21301;43.626;10.580;2022-11-25T11:05:32;9.50;;;6.05;;
35128;SDS011;21301;43.626;10.580;2022-11-25T11:10:36;11.00;;;6.90;;
35128;SDS011;21301;43.626;10.580;2022-11-25T11:13:03;16.35;;;7.72;;
35128;SDS011;21301;43.626;10.580;2022-11-25T11:20:45;19.40;;;10.48;;
35128;SDS011;21301;43.626;10.580;2022-11-25T11:23:13;20.45;;;10.35;;
35128;SDS011;21301;43.626;10.580;2022-11-25T11:25:41;21.40;;;10.25;;
35128;SDS011;21301;43.626;10.580;2022-11-25T11:28:28;21.83;;;11.05;;
35128;SDS011;21301;43.626;10.580;2022-11-25T11:37:01;16.48;;;9.93;;
35128;SDS011;21301;43.626;10.580;2022-11-25T11:39:49;17.02;;;10.55;;
35128;SDS011;21301;43.626;10.580;2022-11-25T11:48:23;15.88;;;10.38;;
35128;SDS011;21301;43.626;10.580;2022-11-25T11:51:12;19.35;;;10.50;;
35128;SDS011;21301;43.626;10.580;2022-11-25T12:04:58;18.42;;;8.13;;
35128;SDS011;21301;43.626;10.580;2022-11-25T12:26:50;11.68;;;8.23;;
35128;SDS011;21301;43.626;10.580;2022-11-25T12:29:24;15.05;;;7.40;;
35128;SDS011;21301;43.626;10.580;2022-11-25T12:37:46;16.00;;;8.13;;
35128;SDS011;21301;43.626;10.580;2022-11-25T12:48:57;20.38;;;13.07;;
35128;SDS011;21301;43.626;10.580;2022-11-25T12:51:36;23.23;;;15.38;;
35128;SDS011;21301;43.626;10.580;2022-11-25T12:59:57;28.33;;;15.95;;
35128;SDS011;21301;43.626;10.580;2022-11-25T13:08:26;18.80;;;14.02;;
35128;SDS011;21301;43.626;10.580;2022-11-25T13:16:52;21.23;;;12.52;;
35128;SDS011;21301;43.626;10.580;2022-11-25T13:19:21;20.08;;;13.90;;
35128;SDS011;21301;43.626;10.580;2022-11-25T13:26:58;23.70;;;14.60;;
35128;SDS011;21301;43.626;10.580;2022-11-25T13:34:32;22.85;;;13.93;;
35128;SDS011;21301;43.626;10.580;2022-11-25T13:37:33;24.17;;;17.23;;
35128;SDS011;21301;43.626;10.580;2022-11-25T13:40:28;23.05;;;14.85;;
35128;SDS011;21301;43.626;10.580;2022-11-25T13:43:02;18.15;;;13.70;;
35128;SDS011;21301;43.626;10.580;2022-11-25T13:45:41;22.98;;;14.05;;
35128;SDS011;21301;43.626;10.580;2022-11-25T13:50:49;23.55;;;15.02;;
35128;SDS011;21301;43.626;10.580;2022-11-25T13:53:23;29.42;;;16.05;;
35128;SDS011;21301;43.626;10.580;2022-11-25T13:56:11;23.70;;;14.90;;
35128;SDS011;21301;43.626;10.580;2022-11-25T14:16:57;31.30;;;17.33;;
35128;SDS011;21301;43.626;10.580;2022-11-25T14:25:26;30.00;;;19.67;;
35128;SDS011;21301;43.626;10.580;2022-11-25T14:28:32;29.13;;;18.40;;
35128;SDS011;21301;43.626;10.580;2022-11-25T14:31:10;25.85;;;17.60;;
35128;SDS011;21301;43.626;10.580;2022-11-25T14:33:45;24.17;;;15.68;;
35128;SDS011;21301;43.626;10.580;2022-11-25T14:36:29;33.25;;;19.30;;
35128;SDS011;21301;43.626;10.580;2022-11-25T14:39:01;33.55;;;18.80;;
35128;SDS011;21301;43.626;10.580;2022-11-25T14:41:31;27.10;;;18.20;;
35128;SDS011;21301;43.626;10.580;2022-11-25T14:44:03;22.90;;;16.92;;
35128;SDS011;21301;43.626;10.580;2022-11-25T14:46:48;24.40;;;16.30;;
35128;SDS011;21301;43.626;10.580;2022-11-25T14:49:16;29.63;;;17.02;;
35128;SDS011;21301;43.626;10.580;2022-11-25T14:51:41;26.33;;;17.05;;
35128;SDS011;21301;43.626;10.580;2022-11-25T14:54:11;30.30;;;18.40;;
35128;SDS011;21301;43.626;10.580;2022-11-25T14:56:37;26.00;;;18.10;;
35128;SDS011;21301;43.626;10.580;2022-11-25T14:59:03;33.13;;;20.90;;
35128;SDS011;21301;43.626;10.580;2022-11-25T15:01:35;30.13;;;18.88;;
35128;SDS011;21301;43.626;10.580;2022-11-25T15:06:41;29.55;;;20.40;;
35128;SDS011;21301;43.626;10.580;2022-11-25T15:11:44;29.42;;;18.33;;
35128;SDS011;21301;43.626;10.580;2022-11-25T15:14:12;30.65;;;21.10;;
35128;SDS011;21301;43.626;10.580;2022-11-25T15:16:45;35.88;;;20.48;;
35128;SDS011;21301;43.626;10.580;2022-11-25T15:19:19;29.15;;;19.55;;
35128;SDS011;21301;43.626;10.580;2022-11-25T15:21:51;29.98;;;20.75;;
35128;SDS011;21301;43.626;10.580;2022-11-25T15:24:31;31.17;;;19.80;;
35128;SDS011;21301;43.626;10.580;2022-11-25T15:27:15;28.38;;;16.88;;
35128;SDS011;21301;43.626;10.580;2022-11-25T15:29:46;26.27;;;16.88;;
35128;SDS011;21301;43.626;10.580;2022-11-25T15:32:21;30.15;;;16.95;;
35128;SDS011;21301;43.626;10.580;2022-11-25T15:34:49;28.70;;;18.20;;
35128;SDS011;21301;43.626;10.580;2022-11-25T15:37:16;24.67;;;16.52;;
35128;SDS011;21301;43.626;10.580;2022-11-25T15:39:42;27.52;;;17.60;;
35128;SDS011;21301;43.626;10.580;2022-11-25T15:44:52;26.60;;;17.10;;
35128;SDS011;21301;43.626;10.580;2022-11-25T15:47:25;28.20;;;19.33;;
35128;SDS011;21301;43.626;10.580;2022-11-25T15:50:03;28.33;;;17.48;;
35128;SDS011;21301;43.626;10.580;2022-11-25T15:52:38;23.17;;;15.43;;
35128;SDS011;21301;43.626;10.580;2022-11-25T15:57:35;27.05;;;16.10;;
35128;SDS011;21301;43.626;10.580;2022-11-25T16:00:16;26.48;;;16.45;;
35128;SDS011;21301;43.626;10.580;2022-11-25T16:07:53;22.05;;;14.55;;
35128;SDS011;21301;43.626;10.580;2022-11-25T16:21:22;26.85;;;17.50;;
35128;SDS011;21301;43.626;10.580;2022-11-25T16:29:20;29.77;;;17.45;;
35128;SDS011;21301;43.626;10.580;2022-11-25T16:31:59;25.33;;;17.77;;
35128;SDS011;21301;43.626;10.580;2022-11-25T16:34:25;24.52;;;16.85;;
35128;SDS011;21301;43.626;10.580;2022-11-25T16:36:52;23.08;;;15.40;;
35128;SDS011;21301;43.626;10.580;2022-11-25T16:39:21;25.45;;;13.65;;
35128;SDS011;21301;43.626;10.580;2022-11-25T16:41:53;29.20;;;18.75;;
35128;SDS011;21301;43.626;10.580;2022-11-25T16:44:23;26.70;;;19.00;;
35128;SDS011;21301;43.626;10.580;2022-11-25T16:46:50;24.85;;;17.10;;
35128;SDS011;21301;43.626;10.580;2022-11-25T16:49:18;24.55;;;15.18;;
35128;SDS011;21301;43.626;10.580;2022-11-25T16:51:45;23.50;;;15.43;;
35128;SDS011;21301;43.626;10.580;2022-11-25T16:54:11;30.83;;;16.10;;
35128;SDS011;21301;43.626;10.580;2022-11-25T16:56:38;26.70;;;17.20;;
35128;SDS011;21301;43.626;10.580;2022-11-25T16:59:05;24.38;;;14.75;;
35128;SDS011;21301;43.626;10.580;2022-11-25T17:01:33;21.42;;;14.95;;
35128;SDS011;21301;43.626;10.580;2022-11-25T17:03:59;22.85;;;17.98;;
35128;SDS011;21301;43.626;10.580;2022-11-25T17:06:27;28.55;;;16.15;;
35128;SDS011;21301;43.626;10.580;2022-11-25T17:08:54;24.98;;;15.35;;
35128;SDS011;21301;43.626;10.580;2022-11-25T17:11:22;22.33;;;14.15;;
35128;SDS011;21301;43.626;10.580;2022-11-25T17:13:51;26.75;;;16.35;;
35128;SDS011;21301;43.626;10.580;2022-11-25T17:16:22;20.05;;;13.77;;
35128;SDS011;21301;43.626;10.580;2022-11-25T17:18:51;24.55;;;15.18;;
35128;SDS011;21301;43.626;10.580;2022-11-25T17:21:18;22.35;;;14.15;;
35128;SDS011;21301;43.626;10.580;2022-11-25T17:23:44;25.05;;;15.00;;
35128;SDS011;21301;43.626;10.580;2022-11-25T17:26:34;23.38;;;14.32;;
35128;SDS011;21301;43.626;10.580;2022-11-25T17:29:03;20.02;;;12.95;;
35128;SDS011;21301;43.626;10.580;2022-11-25T17:31:36;19.85;;;12.95;;